createdAt,value
2019-05-25T00:00:36.966Z,15.80
2019-05-25T00:03:07.272Z,15.70
2019-05-25T00:05:37.616Z,15.60
2019-05-25T00:08:07.961Z,15.60
2019-05-25T00:10:38.345Z,15.50
2019-05-25T00:13:08.631Z,15.50
2019-05-25T00:15:39.367Z,15.50
2019-05-25T00:18:09.649Z,15.40
2019-05-25T00:20:39.835Z,15.40
2019-05-25T00:23:10.500Z,15.30
2019-05-25T00:25:40.773Z,15.30
2019-05-25T00:28:11.095Z,15.30
2019-05-25T00:30:41.586Z,15.20
2019-05-25T00:33:12.033Z,15.20
2019-05-25T00:35:42.963Z,15.10
2019-05-25T00:38:13.299Z,15.10
2019-05-25T00:40:43.657Z,15.10
2019-05-25T00:43:13.955Z,15.00
2019-05-25T00:45:44.287Z,15.00
2019-05-25T00:48:14.554Z,14.90
2019-05-25T00:50:45.261Z,14.90
2019-05-25T00:53:15.545Z,14.90
2019-05-25T00:55:45.995Z,14.80
2019-05-25T00:58:16.404Z,14.80
2019-05-25T01:00:47.065Z,14.70
2019-05-25T01:03:17.641Z,14.70
2019-05-25T01:05:48.117Z,14.70
2019-05-25T01:08:18.435Z,14.60
2019-05-25T01:10:48.619Z,14.50
2019-05-25T01:13:19.384Z,14.50
2019-05-25T01:15:49.663Z,14.40
2019-05-25T01:18:20.699Z,14.50
2019-05-25T01:20:51.175Z,14.40
2019-05-25T01:23:21.441Z,14.40
2019-05-25T01:25:51.705Z,14.40
2019-05-25T01:28:21.996Z,14.40
2019-05-25T01:30:52.792Z,14.30
2019-05-25T01:33:23.130Z,14.30
2019-05-25T01:35:53.421Z,14.30
2019-05-25T01:38:23.677Z,14.30
2019-05-25T01:40:56.251Z,14.20
2019-05-25T01:43:26.549Z,14.20
2019-05-25T01:45:57.207Z,14.20
2019-05-25T01:48:27.677Z,14.20
2019-05-25T01:50:57.856Z,14.10
2019-05-25T01:53:28.232Z,14.10
2019-05-25T01:55:58.642Z,14.10
2019-05-25T01:58:29.171Z,14.00
2019-05-25T02:00:59.420Z,14.00
2019-05-25T02:03:29.789Z,14.00
2019-05-25T02:06:00.149Z,13.90
2019-05-25T02:08:30.442Z,13.90
2019-05-25T02:11:00.713Z,13.90
2019-05-25T02:13:31.238Z,13.90
2019-05-25T02:16:01.513Z,13.90
2019-05-25T02:18:32.868Z,13.80
2019-05-25T02:21:03.156Z,13.80
2019-05-25T02:23:33.455Z,13.70
2019-05-25T02:26:03.826Z,13.80
2019-05-25T02:28:34.074Z,13.70
2019-05-25T02:31:04.448Z,13.70
2019-05-25T02:33:34.748Z,13.70
2019-05-25T02:36:04.973Z,13.60
2019-05-25T02:38:35.846Z,13.60
2019-05-25T02:41:07.298Z,13.60
2019-05-25T02:43:37.752Z,13.50
2019-05-25T02:46:08.110Z,13.50
2019-05-25T02:48:38.381Z,13.50
2019-05-25T02:51:08.750Z,13.50
2019-05-25T02:53:38.922Z,13.40
2019-05-25T02:56:09.188Z,13.40
2019-05-25T02:58:39.462Z,13.40
2019-05-25T03:01:09.980Z,13.40
2019-05-25T03:03:40.232Z,13.40
2019-05-25T03:06:11.918Z,13.40
2019-05-25T03:08:44.278Z,13.50
2019-05-25T03:11:14.572Z,13.40
2019-05-25T03:13:46.039Z,13.40
2019-05-25T03:16:17.174Z,13.40
2019-05-25T03:18:47.370Z,13.40
2019-05-25T03:21:17.644Z,13.40
2019-05-25T03:23:47.899Z,13.40
2019-05-25T03:26:19.214Z,13.40
2019-05-25T03:28:49.941Z,13.40
2019-05-25T03:31:20.227Z,13.40
2019-05-25T03:33:50.535Z,13.40
2019-05-25T03:36:21.151Z,13.50
2019-05-25T03:38:51.488Z,13.50
2019-05-25T03:41:21.777Z,13.50
2019-05-25T03:43:52.048Z,13.50
2019-05-25T03:46:22.374Z,13.60
2019-05-25T03:48:52.762Z,13.60
2019-05-25T03:51:22.984Z,13.60
2019-05-25T03:53:53.253Z,13.60
2019-05-25T03:56:23.538Z,13.60
2019-05-25T03:58:54.059Z,13.70
2019-05-25T04:01:24.171Z,13.80
2019-05-25T04:03:55.381Z,13.80
2019-05-25T04:06:25.546Z,13.80
2019-05-25T04:08:55.829Z,13.80
2019-05-25T04:11:26.090Z,13.90
2019-05-25T04:13:56.524Z,13.90
2019-05-25T04:16:26.779Z,13.90
2019-05-25T04:18:57.104Z,14.00
2019-05-25T04:21:27.400Z,14.00
2019-05-25T04:23:57.649Z,14.10
2019-05-25T04:26:27.811Z,14.10
2019-05-25T04:28:58.811Z,14.10
2019-05-25T04:31:29.101Z,14.00
2019-05-25T04:33:59.342Z,14.00
2019-05-25T04:36:29.590Z,14.00
2019-05-25T04:39:00.587Z,14.10
2019-05-25T04:41:32.349Z,14.20
2019-05-25T04:44:02.613Z,14.20
2019-05-25T04:46:32.887Z,14.30
2019-05-25T04:49:03.157Z,14.30
2019-05-25T04:51:33.487Z,14.40
2019-05-25T04:54:04.117Z,14.40
2019-05-25T04:56:39.533Z,14.50
2019-05-25T04:59:06.949Z,14.50
2019-05-25T05:01:37.200Z,14.50
2019-05-25T05:04:08.417Z,14.60
2019-05-25T05:06:38.588Z,14.70
2019-05-25T05:09:09.449Z,14.90
2019-05-25T05:11:39.608Z,15.10
2019-05-25T05:14:09.891Z,15.40
2019-05-25T05:16:40.313Z,15.40
2019-05-25T05:19:11.003Z,15.40
2019-05-25T05:21:41.304Z,15.40
2019-05-25T05:24:12.029Z,15.50
2019-05-25T05:26:54.719Z,15.70
2019-05-25T05:29:14.311Z,15.80
2019-05-25T05:31:44.874Z,16.00
2019-05-25T05:34:15.128Z,16.00
2019-05-25T05:36:46.711Z,15.90
2019-05-25T05:39:17.568Z,16.10
2019-05-25T05:41:50.181Z,16.40
2019-05-25T05:44:23.283Z,16.60
2019-05-25T05:46:55.948Z,16.70
2019-05-25T05:49:29.882Z,16.90
2019-05-25T05:52:03.252Z,17.00
2019-05-25T05:54:34.631Z,17.20
2019-05-25T05:57:12.313Z,17.20
2019-05-25T05:59:36.852Z,17.30
2019-05-25T06:02:07.111Z,17.30
2019-05-25T06:04:37.895Z,17.40
2019-05-25T06:07:08.126Z,17.40
2019-05-25T06:09:38.742Z,17.70
2019-05-25T06:12:09.212Z,17.80
2019-05-25T06:14:39.842Z,18.00
2019-05-25T06:17:10.105Z,18.00
2019-05-25T06:19:40.564Z,17.90
2019-05-25T06:22:10.854Z,17.70
2019-05-25T06:24:41.150Z,17.60
2019-05-25T06:27:24.631Z,17.50
2019-05-25T06:29:43.354Z,17.60
2019-05-25T06:32:13.812Z,17.60
2019-05-25T06:34:44.085Z,17.80
2019-05-25T06:37:14.418Z,17.70
2019-05-25T06:39:44.778Z,17.70
2019-05-25T06:42:15.126Z,17.80
2019-05-25T06:44:45.406Z,17.70
2019-05-25T06:47:15.688Z,17.80
2019-05-25T06:49:46.028Z,18.10
2019-05-25T06:52:19.309Z,18.10
2019-05-25T06:54:49.649Z,18.00
2019-05-25T06:57:20.634Z,18.20
2019-05-25T06:59:51.005Z,18.60
2019-05-25T07:02:22.710Z,18.50
2019-05-25T07:04:53.021Z,18.70
2019-05-25T07:07:26.135Z,18.70
2019-05-25T07:09:56.333Z,18.50
2019-05-25T07:12:26.885Z,18.80
2019-05-25T07:14:57.161Z,18.60
2019-05-25T07:17:27.349Z,18.80
2019-05-25T07:19:58.207Z,18.90
2019-05-25T07:22:28.446Z,18.60
2019-05-25T07:24:58.749Z,18.80
2019-05-25T07:27:29.042Z,18.90
2019-05-25T07:30:02.831Z,19.10
2019-05-25T07:32:33.052Z,18.80
2019-05-25T07:35:03.315Z,18.70
2019-05-25T07:37:34.492Z,18.80
2019-05-25T07:40:05.754Z,18.90
2019-05-25T07:42:36.051Z,18.80
2019-05-25T07:45:07.333Z,18.80
2019-05-25T07:47:37.615Z,18.90
2019-05-25T07:50:09.073Z,19.00
2019-05-25T07:52:40.559Z,19.10
2019-05-25T07:55:11.249Z,19.00
2019-05-25T07:57:41.523Z,19.10
2019-05-25T08:00:13.093Z,19.10
2019-05-25T08:02:43.411Z,19.30
2019-05-25T08:05:14.393Z,19.30
2019-05-25T08:07:44.717Z,19.30
2019-05-25T08:10:15.913Z,19.30
2019-05-25T08:12:46.103Z,19.20
2019-05-25T08:15:16.603Z,19.40
2019-05-25T08:17:46.857Z,19.20
2019-05-25T08:20:17.723Z,19.40
2019-05-25T08:22:49.291Z,19.50
2019-05-25T08:25:19.576Z,19.50
2019-05-25T08:27:49.981Z,19.70
2019-05-25T08:30:20.214Z,19.80
2019-05-25T08:32:50.533Z,19.80
2019-05-25T08:35:20.697Z,19.90
2019-05-25T08:37:51.035Z,20.00
2019-05-25T08:40:21.544Z,20.00
2019-05-25T08:42:51.857Z,20.00
2019-05-25T08:45:25.794Z,20.00
2019-05-25T08:47:57.077Z,20.10
2019-05-25T08:50:37.841Z,20.10
2019-05-25T08:52:59.019Z,20.10
2019-05-25T08:55:29.639Z,20.10
2019-05-25T08:57:59.985Z,20.40
2019-05-25T09:00:30.260Z,20.40
2019-05-25T09:03:00.826Z,20.50
2019-05-25T09:05:31.137Z,20.60
2019-05-25T09:08:01.387Z,20.60
2019-05-25T09:10:33.057Z,20.70
2019-05-25T09:13:03.357Z,20.80
2019-05-25T09:15:33.639Z,20.80
2019-05-25T09:18:03.905Z,21.00
2019-05-25T09:20:34.227Z,20.90
2019-05-25T09:23:04.547Z,20.60
2019-05-25T09:25:34.881Z,20.70
2019-05-25T09:28:05.254Z,21.00
2019-05-25T09:30:36.379Z,21.00
2019-05-25T09:33:06.650Z,21.20
2019-05-25T09:35:36.971Z,21.30
2019-05-25T09:38:07.139Z,21.50
2019-05-25T09:40:37.452Z,21.70
2019-05-25T09:43:07.797Z,21.70
2019-05-25T09:45:38.358Z,21.70
2019-05-25T09:48:08.796Z,21.70
2019-05-25T09:50:39.066Z,21.50
2019-05-25T09:53:10.118Z,21.30
2019-05-25T09:55:40.377Z,21.20
2019-05-25T09:58:10.694Z,21.20
2019-05-25T10:00:42.140Z,21.40
2019-05-25T10:03:12.646Z,21.30
2019-05-25T10:05:43.264Z,21.30
2019-05-25T10:08:13.544Z,21.40
2019-05-25T10:10:44.068Z,21.10
2019-05-25T10:13:14.594Z,21.40
2019-05-25T10:15:44.888Z,21.70
2019-05-25T10:18:15.412Z,21.80
2019-05-25T10:20:45.711Z,21.90
2019-05-25T10:23:15.988Z,21.70
2019-05-25T10:25:46.552Z,21.70
2019-05-25T10:28:17.079Z,22.00
2019-05-25T10:30:48.680Z,21.90
2019-05-25T10:33:21.737Z,21.70
2019-05-25T10:35:50.792Z,21.70
2019-05-25T10:38:21.342Z,21.70
2019-05-25T10:40:53.716Z,21.60
2019-05-25T10:43:23.994Z,21.90
2019-05-25T10:45:54.371Z,22.10
2019-05-25T10:48:25.520Z,22.20
2019-05-25T10:50:56.824Z,22.40
2019-05-25T10:53:27.079Z,22.30
2019-05-25T10:56:03.672Z,22.20
2019-05-25T10:58:35.605Z,22.40
2019-05-25T11:01:05.932Z,22.30
2019-05-25T11:03:36.205Z,22.00
2019-05-25T11:06:06.456Z,22.20
2019-05-25T11:08:36.782Z,22.30
2019-05-25T11:11:08.058Z,22.40
2019-05-25T11:13:38.466Z,22.20
2019-05-25T11:16:10.036Z,22.10
2019-05-25T11:18:40.334Z,22.40
2019-05-25T11:21:10.506Z,22.10
2019-05-25T11:23:41.021Z,22.30
2019-05-25T11:26:11.259Z,22.30
2019-05-25T11:28:41.456Z,22.60
2019-05-25T11:31:11.715Z,22.70
2019-05-25T11:33:42.500Z,22.70
2019-05-25T11:36:12.951Z,22.90
2019-05-25T11:38:43.320Z,23.10
2019-05-25T11:41:13.668Z,23.00
2019-05-25T11:43:43.857Z,22.70
2019-05-25T11:46:14.091Z,22.30
2019-05-25T11:48:44.573Z,22.50
2019-05-25T11:51:14.863Z,22.40
2019-05-25T11:53:45.133Z,22.70
2019-05-25T11:56:15.605Z,22.80
2019-05-25T11:58:47.773Z,22.50
2019-05-25T12:01:18.643Z,23.20
2019-05-25T12:03:48.937Z,23.10
2019-05-25T12:06:19.327Z,23.10
2019-05-25T12:08:49.591Z,23.00
2019-05-25T12:11:19.840Z,23.00
2019-05-25T12:13:50.675Z,23.00
2019-05-25T12:16:20.967Z,23.20
2019-05-25T12:18:51.285Z,23.40
2019-05-25T12:21:21.762Z,23.50
2019-05-25T12:23:52.005Z,23.30
2019-05-25T12:26:22.283Z,23.50
2019-05-25T12:28:52.774Z,23.60
2019-05-25T12:31:23.145Z,23.60
2019-05-25T12:33:53.441Z,23.80
2019-05-25T12:36:24.007Z,23.70
2019-05-25T12:38:54.195Z,23.30
2019-05-25T12:41:24.635Z,23.50
2019-05-25T12:43:54.883Z,23.50
2019-05-25T12:46:25.229Z,23.40
2019-05-25T12:48:55.408Z,23.40
2019-05-25T12:51:26.143Z,23.20
2019-05-25T12:53:56.483Z,23.60
2019-05-25T12:56:26.809Z,23.90
2019-05-25T12:58:57.420Z,23.70
2019-05-25T13:01:27.579Z,23.50
2019-05-25T13:03:58.103Z,23.40
2019-05-25T13:06:28.373Z,23.20
2019-05-25T13:08:58.677Z,23.20
2019-05-25T13:11:28.958Z,23.50
2019-05-25T13:14:11.987Z,23.60
2019-05-25T13:16:32.048Z,24.00
2019-05-25T13:19:02.335Z,23.80
2019-05-25T13:21:32.801Z,23.90
2019-05-25T13:24:03.299Z,24.40
2019-05-25T13:26:34.236Z,24.60
2019-05-25T13:29:04.751Z,24.40
2019-05-25T13:31:35.029Z,23.60
2019-05-25T13:34:05.765Z,23.40
2019-05-25T13:36:36.217Z,23.90
2019-05-25T13:39:07.565Z,24.10
2019-05-25T13:41:37.832Z,24.20
2019-05-25T13:44:08.183Z,23.90
2019-05-25T13:46:38.452Z,23.80
2019-05-25T13:49:08.788Z,23.70
2019-05-25T13:51:39.338Z,23.90
2019-05-25T13:54:10.325Z,24.10
2019-05-25T13:56:40.692Z,23.60
2019-05-25T13:59:10.966Z,23.70
2019-05-25T14:01:41.329Z,23.80
2019-05-25T14:04:11.702Z,23.60
2019-05-25T14:06:42.282Z,23.00
2019-05-25T14:09:15.680Z,23.00
2019-05-25T14:11:44.458Z,23.10
2019-05-25T14:14:14.635Z,22.80
2019-05-25T14:16:44.887Z,23.10
2019-05-25T14:19:15.142Z,23.00
2019-05-25T14:21:45.840Z,22.90
2019-05-25T14:24:16.118Z,23.00
2019-05-25T14:26:46.375Z,22.80
2019-05-25T14:29:16.713Z,22.80
2019-05-25T14:31:46.936Z,22.60
2019-05-25T14:34:18.075Z,22.70
2019-05-25T14:36:48.704Z,23.00
2019-05-25T14:39:18.961Z,22.90
2019-05-25T14:41:49.276Z,22.90
2019-05-25T14:44:19.563Z,22.60
2019-05-25T14:46:49.891Z,22.50
2019-05-25T14:49:20.177Z,22.50
2019-05-25T14:51:50.510Z,22.50
2019-05-25T14:54:20.810Z,22.40
2019-05-25T14:56:51.050Z,22.60
2019-05-25T14:59:21.616Z,22.60
2019-05-25T15:02:01.884Z,22.80
2019-05-25T15:04:23.866Z,22.70
2019-05-25T15:06:54.440Z,22.80
2019-05-25T15:09:24.722Z,22.40
2019-05-25T15:11:55.018Z,22.30
2019-05-25T15:14:25.734Z,22.20
2019-05-25T15:16:55.983Z,22.10
2019-05-25T15:19:26.477Z,22.30
2019-05-25T15:21:56.838Z,22.40
2019-05-25T15:24:27.527Z,22.10
2019-05-25T15:26:58.930Z,22.10
2019-05-25T15:29:29.988Z,22.30
2019-05-25T15:32:00.274Z,22.40
2019-05-25T15:34:30.746Z,22.30
2019-05-25T15:37:00.971Z,22.40
2019-05-25T15:39:31.547Z,22.40
2019-05-25T15:42:01.825Z,22.40
2019-05-25T15:44:32.144Z,22.50
2019-05-25T15:47:04.895Z,22.60
2019-05-25T15:49:34.527Z,22.60
2019-05-25T15:52:05.401Z,23.00
2019-05-25T15:54:35.758Z,23.20
2019-05-25T15:57:06.077Z,23.10
2019-05-25T15:59:36.425Z,23.40
2019-05-25T16:02:07.601Z,25.10
2019-05-25T16:04:38.158Z,26.40
2019-05-25T16:07:08.435Z,27.10
2019-05-25T16:09:38.684Z,27.80
2019-05-25T16:12:08.979Z,28.00
2019-05-25T16:14:39.310Z,28.90
2019-05-25T16:17:09.447Z,29.80
2019-05-25T16:19:40.539Z,29.30
2019-05-25T16:22:10.790Z,28.80
2019-05-25T16:24:41.066Z,30.00
2019-05-25T16:27:11.335Z,29.60
2019-05-25T16:29:41.662Z,26.40
2019-05-25T16:32:11.930Z,25.50
2019-05-25T16:34:42.385Z,24.70
2019-05-25T16:37:12.733Z,22.80
2019-05-25T16:39:43.219Z,22.60
2019-05-25T16:42:13.487Z,22.50
2019-05-25T16:44:43.762Z,22.40
2019-05-25T16:47:14.008Z,22.30
2019-05-25T16:49:44.186Z,22.30
2019-05-25T16:52:15.706Z,22.20
2019-05-25T16:54:45.989Z,22.10
2019-05-25T16:57:16.238Z,21.80
2019-05-25T16:59:46.559Z,21.60
2019-05-25T17:02:16.912Z,21.70
2019-05-25T17:04:47.178Z,21.70
2019-05-25T17:07:17.777Z,21.80
2019-05-25T17:09:49.167Z,21.80
2019-05-25T17:12:19.944Z,21.90
2019-05-25T17:14:50.218Z,21.90
2019-05-25T17:17:20.462Z,21.90
2019-05-25T17:19:51.862Z,21.60
2019-05-25T17:22:22.112Z,21.50
2019-05-25T17:24:52.599Z,21.20
2019-05-25T17:27:23.004Z,20.90
2019-05-25T17:29:53.669Z,20.70
2019-05-25T17:32:23.974Z,20.70
2019-05-25T17:34:55.348Z,20.60
2019-05-25T17:37:25.626Z,20.40
2019-05-25T17:39:56.254Z,20.40
2019-05-25T17:42:26.642Z,20.20
2019-05-25T17:44:56.965Z,20.00
2019-05-25T17:47:27.165Z,20.00
2019-05-25T17:49:57.459Z,20.00
2019-05-25T17:52:27.734Z,20.00
2019-05-25T17:54:58.346Z,19.80
2019-05-25T17:57:28.561Z,19.80
2019-05-25T17:59:59.581Z,19.80
2019-05-25T18:02:30.558Z,19.90
2019-05-25T18:05:00.856Z,19.70
2019-05-25T18:07:31.234Z,19.60
2019-05-25T18:10:01.512Z,19.30
2019-05-25T18:12:31.776Z,19.30
2019-05-25T18:15:02.072Z,19.10
2019-05-25T18:17:32.426Z,19.00
2019-05-25T18:20:02.902Z,18.90
2019-05-25T18:22:33.154Z,18.90
2019-05-25T18:25:03.448Z,18.80
2019-05-25T18:27:33.665Z,18.70
2019-05-25T18:30:06.261Z,18.70
2019-05-25T18:32:36.601Z,18.70
2019-05-25T18:35:07.475Z,18.70
2019-05-25T18:37:38.268Z,18.40
2019-05-25T18:40:09.427Z,18.30
2019-05-25T18:42:42.433Z,18.30
2019-05-25T18:45:13.732Z,18.20
2019-05-25T18:47:44.186Z,18.20
2019-05-25T18:50:15.468Z,18.30
2019-05-25T18:52:45.808Z,18.20
2019-05-25T18:55:16.888Z,18.20
2019-05-25T18:57:47.639Z,18.00
2019-05-25T19:00:19.186Z,17.90
2019-05-25T19:02:49.466Z,17.90
2019-05-25T19:05:20.625Z,17.80
2019-05-25T19:07:51.086Z,17.80
2019-05-25T19:10:21.946Z,17.70
2019-05-25T19:12:52.460Z,17.90
2019-05-25T19:15:23.082Z,17.70
2019-05-25T19:17:55.349Z,17.70
2019-05-25T19:20:26.136Z,17.70
2019-05-25T19:22:56.410Z,17.60
2019-05-25T19:25:26.776Z,17.60
2019-05-25T19:27:57.168Z,17.50
2019-05-25T19:30:27.340Z,17.50
2019-05-25T19:32:58.946Z,17.50
2019-05-25T19:35:29.238Z,17.50
2019-05-25T19:37:59.827Z,17.40
2019-05-25T19:40:30.466Z,17.30
2019-05-25T19:43:01.036Z,17.30
2019-05-25T19:45:32.846Z,17.30
2019-05-25T19:48:08.243Z,17.30
2019-05-25T19:50:39.645Z,17.30
2019-05-25T19:53:10.295Z,17.20
2019-05-25T19:55:41.773Z,17.20
2019-05-25T19:58:12.153Z,17.10
2019-05-25T20:00:42.974Z,17.10
2019-05-25T20:03:13.369Z,17.00
2019-05-25T20:05:43.979Z,16.80
2019-05-25T20:08:14.227Z,16.80
2019-05-25T20:10:44.629Z,16.70
2019-05-25T20:13:14.962Z,16.70
2019-05-25T20:15:45.575Z,16.70
2019-05-25T20:18:16.057Z,16.60
2019-05-25T20:20:46.336Z,16.50
2019-05-25T20:23:16.963Z,16.40
2019-05-25T20:25:47.242Z,16.40
2019-05-25T20:28:17.453Z,16.30
2019-05-25T20:30:47.845Z,16.30
2019-05-25T20:33:27.496Z,16.30
2019-05-25T20:35:50.155Z,16.20
2019-05-25T20:38:20.467Z,16.20
2019-05-25T20:40:51.041Z,16.20
2019-05-25T20:43:21.351Z,16.20
2019-05-25T20:45:51.700Z,16.10
2019-05-25T20:48:22.006Z,16.10
2019-05-25T20:50:52.383Z,16.00
2019-05-25T20:53:22.695Z,16.00
2019-05-25T20:55:53.045Z,16.00
2019-05-25T20:58:23.514Z,15.90
2019-05-25T21:00:53.797Z,15.80
2019-05-25T21:03:24.116Z,15.70
2019-05-25T21:05:54.417Z,15.70
2019-05-25T21:08:24.691Z,15.70
2019-05-25T21:10:54.964Z,15.70
2019-05-25T21:13:25.245Z,15.70
2019-05-25T21:15:55.739Z,15.70
2019-05-25T21:18:27.164Z,15.60
2019-05-25T21:20:57.641Z,15.50
2019-05-25T21:23:29.238Z,15.50
2019-05-25T21:25:59.590Z,15.50
2019-05-25T21:28:30.104Z,15.40
2019-05-25T21:31:03.264Z,15.40
2019-05-25T21:33:33.924Z,15.30
2019-05-25T21:36:08.951Z,15.20
2019-05-25T21:38:37.458Z,15.20
2019-05-25T21:41:09.631Z,15.20
2019-05-25T21:43:40.772Z,15.10
2019-05-25T21:46:11.352Z,15.00
2019-05-25T21:48:42.025Z,15.00
2019-05-25T21:51:12.824Z,15.00
2019-05-25T21:53:43.746Z,15.00
2019-05-25T21:56:14.758Z,15.00
2019-05-25T21:58:45.658Z,14.90
2019-05-25T22:01:16.862Z,14.90
2019-05-25T22:03:47.600Z,14.80
2019-05-25T22:06:24.174Z,14.60
2019-05-25T22:08:52.000Z,14.60
2019-05-25T22:11:22.459Z,14.70
2019-05-25T22:13:53.390Z,14.70
2019-05-25T22:16:24.012Z,14.70
2019-05-25T22:18:55.093Z,14.80
2019-05-25T22:21:25.430Z,14.70
2019-05-25T22:23:56.042Z,14.50
2019-05-25T22:26:27.419Z,14.50
2019-05-25T22:28:57.982Z,14.40
2019-05-25T22:31:28.250Z,14.40
2019-05-25T22:33:59.410Z,14.40
2019-05-25T22:36:39.583Z,14.30
2019-05-25T22:39:03.135Z,14.20
2019-05-25T22:41:34.187Z,14.20
2019-05-25T22:44:04.988Z,14.10
2019-05-25T22:46:35.319Z,14.00
2019-05-25T22:49:06.213Z,13.90
2019-05-25T22:51:36.473Z,13.90
2019-05-25T22:54:06.704Z,13.80
2019-05-25T22:56:36.974Z,13.70
2019-05-25T22:59:08.292Z,13.70
2019-05-25T23:01:40.104Z,13.70
2019-05-25T23:04:10.338Z,13.60
2019-05-25T23:06:56.684Z,13.60
2019-05-25T23:09:13.238Z,13.60
2019-05-25T23:11:44.037Z,13.50
2019-05-25T23:14:14.497Z,13.50
2019-05-25T23:16:44.734Z,13.50
2019-05-25T23:19:15.030Z,13.40
2019-05-25T23:21:45.265Z,13.40
2019-05-25T23:24:15.565Z,13.40
2019-05-25T23:26:46.021Z,13.30
2019-05-25T23:29:16.295Z,13.30
2019-05-25T23:31:47.475Z,13.30
2019-05-25T23:34:17.802Z,13.30
2019-05-25T23:36:49.682Z,13.20
2019-05-25T23:39:19.953Z,13.20
2019-05-25T23:41:50.219Z,13.20
2019-05-25T23:44:20.517Z,13.20
2019-05-25T23:46:51.020Z,13.10
2019-05-25T23:49:21.681Z,13.10
2019-05-25T23:51:51.931Z,13.10
2019-05-25T23:54:23.596Z,13.00
2019-05-25T23:56:53.759Z,13.00
2019-05-25T23:59:24.081Z,13.00
